createdAt,value
2022-07-27T00:03:36.138Z,9.9
2022-07-27T00:09:27.287Z,9
2022-07-27T00:15:24.218Z,6.8
2022-07-27T00:21:18.320Z,9.8
2022-07-27T00:27:14.403Z,10.4
2022-07-27T00:33:05.908Z,8.7
2022-07-27T00:38:58.032Z,10.1
2022-07-27T00:44:51.183Z,11.3
2022-07-27T00:50:47.720Z,9.5
2022-07-27T00:56:40.095Z,9.2
2022-07-27T01:02:35.703Z,11.2
2022-07-27T01:08:35.969Z,6.5
2022-07-27T01:14:35.731Z,7.5
2022-07-27T01:20:28.279Z,9.4
2022-07-27T01:26:21.250Z,7.7
2022-07-27T01:32:12.176Z,8.6
2022-07-27T01:38:07.901Z,7
2022-07-27T01:44:01.815Z,12
2022-07-27T01:49:53.231Z,6.3
2022-07-27T01:55:48.536Z,6
2022-07-27T02:01:41.643Z,9.3
2022-07-27T02:07:32.941Z,5.5
2022-07-27T02:13:27.306Z,7.9
2022-07-27T02:19:22.094Z,7
2022-07-27T02:25:13.276Z,6.8
2022-07-27T02:31:05.500Z,8.4
2022-07-27T02:36:59.672Z,7.2
2022-07-27T02:42:52.270Z,8.7
2022-07-27T02:48:46.849Z,5.3
2022-07-27T02:54:38.088Z,9.9
2022-07-27T03:00:30.079Z,8.4
2022-07-27T03:06:24.325Z,6.1
2022-07-27T03:12:16.855Z,6.2
2022-07-27T03:18:11.490Z,6.1
2022-07-27T03:24:05.839Z,6.5
2022-07-27T03:29:57.549Z,7.2
2022-07-27T03:35:47.472Z,7.2
2022-07-27T03:41:40.034Z,8.4
2022-07-27T03:47:29.326Z,7.7
2022-07-27T03:53:20.287Z,6.3
2022-07-27T03:59:10.391Z,7.2
2022-07-27T04:04:59.946Z,5.4
2022-07-27T04:10:55.991Z,10.7
2022-07-27T04:16:48.949Z,6.8
2022-07-27T04:22:41.253Z,5.1
2022-07-27T04:28:35.076Z,8.5
2022-07-27T04:34:28.503Z,5.2
2022-07-27T04:40:22.431Z,6.5
2022-07-27T04:46:20.364Z,5.1
2022-07-27T04:52:17.883Z,7.8
2022-07-27T04:58:19.408Z,7
2022-07-27T05:04:11.140Z,7.7
2022-07-27T05:10:04.914Z,7
2022-07-27T05:16:01.130Z,8.6
2022-07-27T05:21:54.165Z,7.6
2022-07-27T05:28:00.189Z,6.7
2022-07-27T05:34:03.704Z,8.7
2022-07-27T05:40:11.492Z,7.5
2022-07-27T05:46:25.648Z,9.8
2022-07-27T05:52:25.588Z,9.3
2022-07-27T05:58:28.243Z,8.2
2022-07-27T06:04:23.109Z,9.6
2022-07-27T06:10:16.430Z,7.8
2022-07-27T06:16:11.959Z,5.6
2022-07-27T06:22:06.547Z,9.5
2022-07-27T06:28:02.380Z,9.1
2022-07-27T06:33:57.688Z,7.3
2022-07-27T06:39:54.580Z,7.6
2022-07-27T06:45:44.927Z,7.3
2022-07-27T06:51:39.035Z,7
2022-07-27T06:57:34.647Z,7.5
2022-07-27T07:03:36.621Z,7.4
2022-07-27T07:09:34.042Z,4.7
2022-07-27T07:15:26.172Z,5.9
2022-07-27T07:21:20.966Z,5.3
2022-07-27T07:27:12.220Z,4.2
2022-07-27T07:33:03.463Z,7.3
2022-07-27T07:38:55.134Z,3.8
2022-07-27T07:44:46.707Z,5.4
2022-07-27T07:50:39.470Z,4.7
2022-07-27T07:56:31.770Z,4.2
2022-07-27T08:02:24.351Z,4.4
2022-07-27T08:08:19.755Z,5.4
2022-07-27T08:14:17.042Z,6.9
2022-07-27T08:20:10.583Z,4.6
2022-07-27T08:33:06.701Z,4.6
2022-07-27T08:39:02.719Z,5.2
2022-07-27T08:44:56.504Z,3.1
2022-07-27T08:50:50.184Z,4.3
2022-07-27T08:56:45.936Z,3.8
2022-07-27T09:02:41.023Z,4.2
2022-07-27T09:08:34.154Z,4.9
2022-07-27T09:14:40.684Z,4.4
2022-07-27T09:26:51.651Z,4.2
2022-07-27T09:32:56.686Z,4.2
2022-07-27T09:39:15.225Z,4.7
2022-07-27T09:45:15.612Z,2.8
2022-07-27T09:52:10.431Z,4
2022-07-27T10:15:52.496Z,4.7
2022-07-27T10:22:15.287Z,4.5
2022-07-27T10:54:14.798Z,2.8
2022-07-27T11:08:05.135Z,2.8
2022-07-27T11:14:38.211Z,3
2022-07-27T11:20:54.709Z,4.7
2022-07-27T11:32:49.419Z,3.5
2022-07-27T11:39:04.596Z,4.5
2022-07-27T11:57:52.267Z,5.6
2022-07-27T12:27:49.528Z,5.1
2022-07-27T12:33:43.075Z,3.3
2022-07-27T12:39:46.789Z,2.4
2022-07-27T12:45:45.459Z,4
2022-07-27T12:51:39.046Z,2.7
2022-07-27T12:58:00.183Z,3.2
2022-07-27T13:03:48.128Z,4.4
2022-07-27T13:10:08.631Z,4.9
2022-07-27T13:15:57.988Z,5.2
2022-07-27T13:21:47.296Z,5.6
2022-07-27T13:27:39.688Z,3.5
2022-07-27T13:33:32.735Z,3.2
2022-07-27T13:39:23.176Z,2.7
2022-07-27T13:45:16.456Z,2.6
2022-07-27T13:51:10.161Z,4.2
2022-07-27T13:57:01.417Z,2.6
2022-07-27T14:02:52.719Z,3.7
2022-07-27T14:08:44.419Z,5.2
2022-07-27T14:14:35.107Z,4.6
2022-07-27T14:20:26.764Z,4.8
2022-07-27T14:26:18.300Z,4.6
2022-07-27T14:32:09.491Z,6.7
2022-07-27T14:38:02.556Z,5.2
2022-07-27T14:43:54.600Z,4.2
2022-07-27T14:49:45.625Z,4.4
2022-07-27T14:55:37.513Z,4.4
2022-07-27T15:01:29.281Z,4.5
2022-07-27T15:07:21.906Z,5.1
2022-07-27T15:13:13.949Z,4.9
2022-07-27T15:19:06.120Z,6.1
2022-07-27T15:25:00.129Z,5.5
2022-07-27T15:30:50.633Z,5.3
2022-07-27T15:36:55.363Z,4.9
2022-07-27T15:42:45.866Z,6.5
2022-07-27T15:48:36.915Z,5.2
2022-07-27T15:54:35.949Z,10.4
2022-07-27T16:00:42.521Z,3
2022-07-27T16:06:39.560Z,3.3
2022-07-27T16:12:31.892Z,4.1
2022-07-27T16:18:25.857Z,3.4
2022-07-27T16:24:16.643Z,3.1
2022-07-27T16:30:07.498Z,4.5
2022-07-27T16:35:58.798Z,4.4
2022-07-27T16:41:49.576Z,3.9
2022-07-27T16:47:40.877Z,3.6
2022-07-27T16:53:32.387Z,4.7
2022-07-27T16:59:22.785Z,3.3
2022-07-27T17:05:12.306Z,3.4
2022-07-27T17:11:10.678Z,4
2022-07-27T17:17:02.256Z,4.4
2022-07-27T17:22:52.532Z,5.6
2022-07-27T17:28:46.895Z,3.3
2022-07-27T17:34:38.790Z,3
2022-07-27T17:40:31.066Z,4.5
2022-07-27T17:46:20.448Z,3.6
2022-07-27T17:52:10.420Z,5.3
2022-07-27T17:58:00.770Z,4
2022-07-27T18:03:51.351Z,4.6
2022-07-27T18:09:41.781Z,4.7
2022-07-27T18:15:33.108Z,5
2022-07-27T18:21:24.417Z,4.3
2022-07-27T18:27:15.537Z,4.8
2022-07-27T18:33:08.430Z,3.4
2022-07-27T18:39:00.975Z,3.6
2022-07-27T18:44:51.073Z,7.1
2022-07-27T18:50:46.101Z,4.4
2022-07-27T18:56:37.483Z,5.4
2022-07-27T19:02:28.399Z,3.6
2022-07-27T19:08:20.892Z,3.8
2022-07-27T19:14:12.142Z,6
2022-07-27T19:20:02.834Z,4.9
2022-07-27T19:25:53.643Z,3.7
2022-07-27T19:31:44.259Z,5.6
2022-07-27T19:37:35.585Z,5.5
2022-07-27T19:43:26.586Z,8.9
2022-07-27T19:49:21.101Z,6.8
2022-07-27T19:55:32.723Z,8
2022-07-27T20:01:31.436Z,5.8
2022-07-27T20:07:26.612Z,6.4
2022-07-27T20:13:30.171Z,4.7
2022-07-27T20:19:22.473Z,6.8
2022-07-27T20:25:32.179Z,6.6
2022-07-27T20:31:22.947Z,6
2022-07-27T20:37:14.434Z,5.8
2022-07-27T20:43:05.698Z,6.1
2022-07-27T20:49:30.988Z,5.7
2022-07-27T20:55:38.118Z,5.6
2022-07-27T21:01:34.063Z,5.3
2022-07-27T21:07:25.708Z,4.4
2022-07-27T21:13:31.689Z,7.2
2022-07-27T21:19:45.881Z,5.9
2022-07-27T21:25:59.830Z,5.3
2022-07-27T21:31:54.132Z,4.5
2022-07-27T21:37:50.260Z,5.9
2022-07-27T21:50:06.471Z,5.2
2022-07-27T22:08:50.755Z,4.8
2022-07-27T22:14:46.285Z,4.5
2022-07-27T22:27:14.991Z,4.1
2022-07-27T22:33:11.359Z,3.8
2022-07-27T22:39:02.715Z,6.6
2022-07-27T22:44:55.661Z,5.1
2022-07-27T22:50:50.324Z,4.2
2022-07-27T22:56:44.036Z,3.9
2022-07-27T23:02:37.857Z,4.7
2022-07-27T23:08:30.223Z,5.7
2022-07-27T23:14:24.404Z,4.1
2022-07-27T23:20:17.165Z,8.1
2022-07-27T23:26:12.838Z,5
2022-07-27T23:32:04.222Z,5.8
2022-07-27T23:37:56.061Z,5
2022-07-27T23:43:48.639Z,5.1
2022-07-27T23:49:39.720Z,4.1
2022-07-27T23:55:34.009Z,3.7
